Tieling, China
Current Conditions -  °F | °C
As of 10:30 AM on Saturday 25 Oct 2014 (Local Time) from ZYTX Reporting Station
Haze Haze  
Wind Chill: 66°   Ceiling: 3300
Heat Index: 66°   Visibility: 3mi
Dew Point: 54°   Wind: 9mph
Humidity: 64%   Direction: 200°SSW
Pressure: 29.88"   Gusts: NA
Location:  42.3°N, 123.82°E
Report Text: ZYTX 250230Z 20004MPS 5000 HZ BKN033 19/12 Q1012 NOSIG
Loading
Personal Weather Stations






























Interactive Weather Map
Tropical Storm Tracking
New forecast layout! Learn more

10-Day Weather Forecast

Advertisements
Track Severe Weather on mobile